sensor_id;sensor_type;location;lat;lon;timestamp;pressure;altitude;pressure_sealevel;temperature;humidity
54850;BME280;47660;51.334;12.396;2023-05-11T00:00:12;99960.78;;;23.24;87.38
54850;BME280;47660;51.334;12.396;2023-05-11T00:02:40;99966.16;;;23.76;87.69
54850;BME280;47660;51.334;12.396;2023-05-11T00:05:06;99969.03;;;23.01;88.97
54850;BME280;47660;51.334;12.396;2023-05-11T00:07:32;99966.25;;;22.94;89.58
54850;BME280;47660;51.334;12.396;2023-05-11T00:09:57;99960.53;;;22.89;89.78
54850;BME280;47660;51.334;12.396;2023-05-11T00:12:22;99959.31;;;22.77;91.07
54850;BME280;47660;51.334;12.396;2023-05-11T00:14:48;99961.66;;;22.95;89.34
54850;BME280;47660;51.334;12.396;2023-05-11T00:17:13;99962.84;;;23.07;89.59
54850;BME280;47660;51.334;12.396;2023-05-11T00:19:39;99961.19;;;22.91;90.65
54850;BME280;47660;51.334;12.396;2023-05-11T00:22:04;99957.38;;;23.00;89.71
54850;BME280;47660;51.334;12.396;2023-05-11T00:24:30;99948.53;;;23.13;86.45
54850;BME280;47660;51.334;12.396;2023-05-11T00:26:55;99951.47;;;22.97;89.80
54850;BME280;47660;51.334;12.396;2023-05-11T00:29:20;99948.03;;;22.88;90.02
54850;BME280;47660;51.334;12.396;2023-05-11T00:31:46;99944.50;;;22.88;91.52
54850;BME280;47660;51.334;12.396;2023-05-11T00:34:16;99950.97;;;23.60;89.38
54850;BME280;47660;51.334;12.396;2023-05-11T00:36:42;99951.09;;;23.00;91.05
54850;BME280;47660;51.334;12.396;2023-05-11T00:39:09;99945.94;;;23.05;91.42
54850;BME280;47660;51.334;12.396;2023-05-11T00:41:34;99948.97;;;23.69;84.85
54850;BME280;47660;51.334;12.396;2023-05-11T00:44:00;99946.72;;;22.54;90.55
54850;BME280;47660;51.334;12.396;2023-05-11T00:46:28;99946.53;;;22.55;91.38
54850;BME280;47660;51.334;12.396;2023-05-11T00:48:56;99946.44;;;22.79;91.15
54850;BME280;47660;51.334;12.396;2023-05-11T00:51:22;99944.59;;;22.79;88.47
54850;BME280;47660;51.334;12.396;2023-05-11T00:53:51;99937.16;;;23.03;90.33
54850;BME280;47660;51.334;12.396;2023-05-11T00:56:16;99947.72;;;22.98;87.87
54850;BME280;47660;51.334;12.396;2023-05-11T00:58:42;99946.84;;;23.27;87.35
54850;BME280;47660;51.334;12.396;2023-05-11T01:01:08;99948.09;;;23.47;84.58
54850;BME280;47660;51.334;12.396;2023-05-11T01:03:34;99945.97;;;23.42;83.12
54850;BME280;47660;51.334;12.396;2023-05-11T01:13:49;99931.78;;;23.83;84.06
54850;BME280;47660;51.334;12.396;2023-05-11T01:16:21;99929.13;;;23.68;84.92
54850;BME280;47660;51.334;12.396;2023-05-11T01:21:15;99926.47;;;23.75;84.84
54850;BME280;47660;51.334;12.396;2023-05-11T01:27:22;99928.50;;;23.66;83.90
54850;BME280;47660;51.334;12.396;2023-05-11T01:32:48;99938.84;;;22.44;90.19
54850;BME280;47660;51.334;12.396;2023-05-11T01:35:18;99928.81;;;24.00;83.14
54850;BME280;47660;51.334;12.396;2023-05-11T01:37:53;99931.16;;;24.03;82.96
54850;BME280;47660;51.334;12.396;2023-05-11T01:40:26;99933.59;;;23.54;87.85
54850;BME280;47660;51.334;12.396;2023-05-11T01:43:10;99929.06;;;23.62;87.13
54850;BME280;47660;51.334;12.396;2023-05-11T01:45:40;99941.59;;;23.41;89.90
54850;BME280;47660;51.334;12.396;2023-05-11T01:48:13;99944.69;;;23.38;88.89
54850;BME280;47660;51.334;12.396;2023-05-11T01:50:41;99941.28;;;22.99;91.66
54850;BME280;47660;51.334;12.396;2023-05-11T01:53:07;99941.06;;;23.31;88.34
54850;BME280;47660;51.334;12.396;2023-05-11T01:55:34;99937.66;;;24.09;82.51
54850;BME280;47660;51.334;12.396;2023-05-11T01:58:05;99945.38;;;23.90;84.71
54850;BME280;47660;51.334;12.396;2023-05-11T02:00:33;99942.09;;;23.14;86.88
54850;BME280;47660;51.334;12.396;2023-05-11T02:03:06;99945.16;;;24.07;84.06
54850;BME280;47660;51.334;12.396;2023-05-11T02:05:33;99942.88;;;24.39;81.34
54850;BME280;47660;51.334;12.396;2023-05-11T02:08:00;99940.75;;;24.06;83.44
54850;BME280;47660;51.334;12.396;2023-05-11T02:10:27;99936.03;;;23.93;81.77
54850;BME280;47660;51.334;12.396;2023-05-11T02:12:55;99940.31;;;23.80;81.90
54850;BME280;47660;51.334;12.396;2023-05-11T02:15:23;99941.19;;;24.38;80.29
54850;BME280;47660;51.334;12.396;2023-05-11T02:17:50;99946.00;;;23.85;84.36
54850;BME280;47660;51.334;12.396;2023-05-11T02:20:16;99943.69;;;24.04;83.92
54850;BME280;47660;51.334;12.396;2023-05-11T02:22:43;99943.47;;;24.06;82.93
54850;BME280;47660;51.334;12.396;2023-05-11T02:25:10;99938.75;;;23.93;82.62
54850;BME280;47660;51.334;12.396;2023-05-11T02:27:39;99940.88;;;23.54;83.81
54850;BME280;47660;51.334;12.396;2023-05-11T02:30:05;99933.09;;;23.94;81.95
54850;BME280;47660;51.334;12.396;2023-05-11T02:32:36;99938.41;;;24.24;81.33
54850;BME280;47660;51.334;12.396;2023-05-11T02:35:14;99937.31;;;24.18;82.24
54850;BME280;47660;51.334;12.396;2023-05-11T02:37:45;99941.84;;;23.68;85.85
54850;BME280;47660;51.334;12.396;2023-05-11T02:40:15;99938.34;;;24.17;83.54
54850;BME280;47660;51.334;12.396;2023-05-11T02:42:44;99934.03;;;24.30;82.14
54850;BME280;47660;51.334;12.396;2023-05-11T02:45:11;99944.94;;;23.65;84.27
54850;BME280;47660;51.334;12.396;2023-05-11T02:47:41;99937.47;;;23.88;84.50
54850;BME280;47660;51.334;12.396;2023-05-11T02:50:08;99933.88;;;24.03;82.20
54850;BME280;47660;51.334;12.396;2023-05-11T02:52:35;99935.88;;;24.23;81.27
54850;BME280;47660;51.334;12.396;2023-05-11T02:55:07;99929.28;;;24.39;79.83
54850;BME280;47660;51.334;12.396;2023-05-11T02:57:33;99931.38;;;23.65;84.61
54850;BME280;47660;51.334;12.396;2023-05-11T03:00:02;99920.97;;;23.47;86.03
54850;BME280;47660;51.334;12.396;2023-05-11T03:02:28;99927.38;;;23.39;86.42
54850;BME280;47660;51.334;12.396;2023-05-11T03:04:53;99924.56;;;23.47;85.87
54850;BME280;47660;51.334;12.396;2023-05-11T03:07:19;99927.59;;;23.59;84.04
54850;BME280;47660;51.334;12.396;2023-05-11T03:09:45;99923.75;;;23.32;86.17
54850;BME280;47660;51.334;12.396;2023-05-11T03:12:16;99922.50;;;23.49;86.58
54850;BME280;47660;51.334;12.396;2023-05-11T03:14:42;99928.72;;;23.28;86.88
54850;BME280;47660;51.334;12.396;2023-05-11T03:17:08;99923.38;;;23.20;86.97
54850;BME280;47660;51.334;12.396;2023-05-11T03:19:38;99915.28;;;24.07;84.51
54850;BME280;47660;51.334;12.396;2023-05-11T03:22:06;99916.59;;;23.67;85.58
54850;BME280;47660;51.334;12.396;2023-05-11T03:24:34;99913.81;;;23.61;84.87
54850;BME280;47660;51.334;12.396;2023-05-11T03:27:00;99919.88;;;23.41;86.00
54850;BME280;47660;51.334;12.396;2023-05-11T03:29:26;99915.56;;;23.68;85.18
54850;BME280;47660;51.334;12.396;2023-05-11T03:31:53;99912.25;;;23.73;84.71
54850;BME280;47660;51.334;12.396;2023-05-11T03:34:19;99921.44;;;23.72;83.07
54850;BME280;47660;51.334;12.396;2023-05-11T03:36:47;99920.97;;;24.12;83.66
54850;BME280;47660;51.334;12.396;2023-05-11T03:39:14;99920.41;;;23.51;86.12
54850;BME280;47660;51.334;12.396;2023-05-11T03:41:41;99917.81;;;23.65;86.11
54850;BME280;47660;51.334;12.396;2023-05-11T03:44:11;99921.91;;;23.76;85.65
54850;BME280;47660;51.334;12.396;2023-05-11T03:46:39;99922.00;;;23.89;85.28
54850;BME280;47660;51.334;12.396;2023-05-11T03:49:06;99917.88;;;23.50;85.63
54850;BME280;47660;51.334;12.396;2023-05-11T03:51:35;99925.63;;;23.53;84.58
54850;BME280;47660;51.334;12.396;2023-05-11T03:54:00;99925.75;;;23.08;86.92
54850;BME280;47660;51.334;12.396;2023-05-11T03:56:26;99920.22;;;23.31;85.68
54850;BME280;47660;51.334;12.396;2023-05-11T03:58:52;99919.72;;;23.64;83.61
54850;BME280;47660;51.334;12.396;2023-05-11T04:01:20;99923.00;;;23.38;84.12
54850;BME280;47660;51.334;12.396;2023-05-11T04:03:48;99919.38;;;23.74;85.43
54850;BME280;47660;51.334;12.396;2023-05-11T04:06:15;99924.03;;;23.37;87.23
54850;BME280;47660;51.334;12.396;2023-05-11T04:08:41;99922.53;;;23.34;84.80
54850;BME280;47660;51.334;12.396;2023-05-11T04:11:09;99918.50;;;23.95;84.35
54850;BME280;47660;51.334;12.396;2023-05-11T04:13:35;99921.31;;;23.37;84.94
54850;BME280;47660;51.334;12.396;2023-05-11T04:16:00;99920.84;;;23.18;85.89
54850;BME280;47660;51.334;12.396;2023-05-11T04:18:26;99925.84;;;23.14;86.63
54850;BME280;47660;51.334;12.396;2023-05-11T04:20:51;99920.63;;;22.98;86.65
54850;BME280;47660;51.334;12.396;2023-05-11T04:23:17;99927.25;;;23.47;83.30
54850;BME280;47660;51.334;12.396;2023-05-11T04:25:42;99925.69;;;23.38;84.07
54850;BME280;47660;51.334;12.396;2023-05-11T04:28:08;99929.81;;;23.34;85.53
54850;BME280;47660;51.334;12.396;2023-05-11T04:30:33;99941.72;;;23.18;86.05
54850;BME280;47660;51.334;12.396;2023-05-11T04:32:59;99935.38;;;23.10;85.87
54850;BME280;47660;51.334;12.396;2023-05-11T04:35:24;99928.16;;;23.18;85.64
54850;BME280;47660;51.334;12.396;2023-05-11T04:37:50;99933.88;;;23.23;84.95
54850;BME280;47660;51.334;12.396;2023-05-11T04:40:15;99935.19;;;23.49;84.09
54850;BME280;47660;51.334;12.396;2023-05-11T04:42:41;99931.88;;;23.32;84.83
54850;BME280;47660;51.334;12.396;2023-05-11T04:45:06;99932.38;;;23.35;85.08
54850;BME280;47660;51.334;12.396;2023-05-11T04:47:32;99927.31;;;23.32;84.14
54850;BME280;47660;51.334;12.396;2023-05-11T04:50:00;99934.31;;;23.26;84.63
54850;BME280;47660;51.334;12.396;2023-05-11T04:52:28;99933.13;;;23.51;84.21
54850;BME280;47660;51.334;12.396;2023-05-11T04:54:54;99939.34;;;23.66;82.46
54850;BME280;47660;51.334;12.396;2023-05-11T04:57:19;99939.53;;;23.65;81.98
54850;BME280;47660;51.334;12.396;2023-05-11T04:59:45;99934.88;;;23.22;83.82
54850;BME280;47660;51.334;12.396;2023-05-11T05:02:10;99936.94;;;23.35;83.88
54850;BME280;47660;51.334;12.396;2023-05-11T05:04:36;99932.75;;;23.54;82.20
54850;BME280;47660;51.334;12.396;2023-05-11T05:07:01;99927.56;;;23.37;81.45
54850;BME280;47660;51.334;12.396;2023-05-11T05:09:27;99929.78;;;23.49;81.76
54850;BME280;47660;51.334;12.396;2023-05-11T05:11:52;99926.63;;;23.45;81.37
54850;BME280;47660;51.334;12.396;2023-05-11T05:14:20;99936.13;;;23.99;77.71
54850;BME280;47660;51.334;12.396;2023-05-11T05:16:45;99927.03;;;23.92;79.45
54850;BME280;47660;51.334;12.396;2023-05-11T05:19:11;99925.75;;;23.44;81.87
54850;BME280;47660;51.334;12.396;2023-05-11T05:21:37;99929.84;;;23.55;79.94
54850;BME280;47660;51.334;12.396;2023-05-11T05:24:05;99928.41;;;23.38;80.10
54850;BME280;47660;51.334;12.396;2023-05-11T05:26:31;99927.00;;;23.42;80.47
54850;BME280;47660;51.334;12.396;2023-05-11T05:28:57;99925.38;;;23.26;80.29
54850;BME280;47660;51.334;12.396;2023-05-11T05:31:23;99923.53;;;24.20;77.69
54850;BME280;47660;51.334;12.396;2023-05-11T05:33:48;99930.75;;;23.84;77.56
54850;BME280;47660;51.334;12.396;2023-05-11T05:36:14;99928.47;;;24.10;75.50
54850;BME280;47660;51.334;12.396;2023-05-11T05:38:39;99931.56;;;24.07;74.63
54850;BME280;47660;51.334;12.396;2023-05-11T05:41:05;99938.66;;;23.57;77.89
54850;BME280;47660;51.334;12.396;2023-05-11T05:43:30;99934.81;;;23.52;77.62
54850;BME280;47660;51.334;12.396;2023-05-11T05:45:56;99939.28;;;23.59;77.80
54850;BME280;47660;51.334;12.396;2023-05-11T05:48:21;99938.03;;;24.34;73.87
54850;BME280;47660;51.334;12.396;2023-05-11T05:50:49;99938.19;;;24.26;74.66
54850;BME280;47660;51.334;12.396;2023-05-11T05:53:14;99937.50;;;24.45;73.12
54850;BME280;47660;51.334;12.396;2023-05-11T05:55:40;99938.69;;;24.08;74.23
54850;BME280;47660;51.334;12.396;2023-05-11T05:58:08;99940.94;;;24.96;73.15
54850;BME280;47660;51.334;12.396;2023-05-11T06:00:37;99941.97;;;24.95;72.26
54850;BME280;47660;51.334;12.396;2023-05-11T06:03:02;99948.66;;;24.57;72.64
54850;BME280;47660;51.334;12.396;2023-05-11T06:05:30;99940.16;;;24.39;75.35
54850;BME280;47660;51.334;12.396;2023-05-11T06:07:56;99945.66;;;24.74;72.42
54850;BME280;47660;51.334;12.396;2023-05-11T06:10:21;99942.16;;;24.52;72.98
54850;BME280;47660;51.334;12.396;2023-05-11T06:12:47;99951.78;;;24.61;70.73
54850;BME280;47660;51.334;12.396;2023-05-11T06:15:12;99947.84;;;24.99;69.13
54850;BME280;47660;51.334;12.396;2023-05-11T06:17:37;99948.09;;;25.11;69.06
54850;BME280;47660;51.334;12.396;2023-05-11T06:20:06;99945.44;;;24.75;69.76
54850;BME280;47660;51.334;12.396;2023-05-11T06:22:34;99943.31;;;25.19;70.16
54850;BME280;47660;51.334;12.396;2023-05-11T06:24:59;99951.13;;;24.87;69.79
54850;BME280;47660;51.334;12.396;2023-05-11T06:27:24;99947.72;;;24.72;69.65
54850;BME280;47660;51.334;12.396;2023-05-11T06:29:50;99951.03;;;25.09;68.18
54850;BME280;47660;51.334;12.396;2023-05-11T06:32:18;99952.06;;;25.70;67.15
54850;BME280;47660;51.334;12.396;2023-05-11T06:34:45;99948.50;;;25.63;65.43
54850;BME280;47660;51.334;12.396;2023-05-11T06:37:13;99944.53;;;25.03;67.52
54850;BME280;47660;51.334;12.396;2023-05-11T06:39:50;99935.06;;;25.48;67.03
54850;BME280;47660;51.334;12.396;2023-05-11T06:42:15;99944.22;;;24.85;64.37
54850;BME280;47660;51.334;12.396;2023-05-11T06:44:45;99940.72;;;24.62;64.86
54850;BME280;47660;51.334;12.396;2023-05-11T06:47:11;99932.91;;;25.36;64.12
54850;BME280;47660;51.334;12.396;2023-05-11T06:49:36;99935.41;;;25.25;64.25
54850;BME280;47660;51.334;12.396;2023-05-11T06:52:02;99939.56;;;24.72;62.97
54850;BME280;47660;51.334;12.396;2023-05-11T06:54:33;99942.63;;;25.66;62.56
54850;BME280;47660;51.334;12.396;2023-05-11T06:57:04;99939.28;;;25.64;59.06
54850;BME280;47660;51.334;12.396;2023-05-11T06:59:30;99938.19;;;24.61;62.90
54850;BME280;47660;51.334;12.396;2023-05-11T07:02:00;99934.41;;;24.90;63.06
54850;BME280;47660;51.334;12.396;2023-05-11T07:04:28;99933.25;;;25.13;61.60
54850;BME280;47660;51.334;12.396;2023-05-11T07:06:56;99937.69;;;24.72;61.56
54850;BME280;47660;51.334;12.396;2023-05-11T07:09:21;99936.63;;;25.15;61.47
54850;BME280;47660;51.334;12.396;2023-05-11T07:11:47;99935.94;;;25.75;59.47
54850;BME280;47660;51.334;12.396;2023-05-11T07:14:12;99934.94;;;25.14;60.91
54850;BME280;47660;51.334;12.396;2023-05-11T07:16:41;99923.22;;;28.24;54.43
54850;BME280;47660;51.334;12.396;2023-05-11T07:19:06;99933.03;;;26.24;57.73
54850;BME280;47660;51.334;12.396;2023-05-11T07:21:35;99941.81;;;26.06;59.02
54850;BME280;47660;51.334;12.396;2023-05-11T07:24:04;99936.19;;;26.14;58.86
54850;BME280;47660;51.334;12.396;2023-05-11T07:26:38;99939.56;;;25.27;60.93
54850;BME280;47660;51.334;12.396;2023-05-11T07:29:04;99926.91;;;27.85;52.25
54850;BME280;47660;51.334;12.396;2023-05-11T07:31:38;99928.81;;;27.14;55.94
54850;BME280;47660;51.334;12.396;2023-05-11T07:34:03;99938.03;;;26.27;57.50
54850;BME280;47660;51.334;12.396;2023-05-11T07:36:29;99936.53;;;26.51;57.66
54850;BME280;47660;51.334;12.396;2023-05-11T07:38:54;99934.06;;;26.43;55.75
54850;BME280;47660;51.334;12.396;2023-05-11T07:41:22;99933.31;;;27.72;53.65
54850;BME280;47660;51.334;12.396;2023-05-11T07:43:50;99929.38;;;28.63;50.06
54850;BME280;47660;51.334;12.396;2023-05-11T07:46:16;99941.22;;;27.03;52.91
54850;BME280;47660;51.334;12.396;2023-05-11T07:48:41;99931.19;;;27.36;53.10
54850;BME280;47660;51.334;12.396;2023-05-11T07:51:10;99939.72;;;25.74;57.33
54850;BME280;47660;51.334;12.396;2023-05-11T07:53:35;99936.38;;;27.51;51.78
54850;BME280;47660;51.334;12.396;2023-05-11T07:56:03;99940.22;;;28.00;51.97
54850;BME280;47660;51.334;12.396;2023-05-11T07:58:29;99945.00;;;27.09;53.08
54850;BME280;47660;51.334;12.396;2023-05-11T08:00:55;99943.03;;;27.23;52.05
54850;BME280;47660;51.334;12.396;2023-05-11T08:03:21;99955.78;;;25.62;55.99
54850;BME280;47660;51.334;12.396;2023-05-11T08:05:47;99945.50;;;27.31;53.11
54850;BME280;47660;51.334;12.396;2023-05-11T08:08:15;99943.88;;;26.64;53.78
54850;BME280;47660;51.334;12.396;2023-05-11T08:10:43;99956.47;;;25.78;54.67
54850;BME280;47660;51.334;12.396;2023-05-11T08:13:08;99947.09;;;28.35;49.39
54850;BME280;47660;51.334;12.396;2023-05-11T08:15:36;99950.84;;;27.12;50.92
54850;BME280;47660;51.334;12.396;2023-05-11T08:18:01;99958.38;;;26.24;52.37
54850;BME280;47660;51.334;12.396;2023-05-11T08:20:27;99951.25;;;27.16;50.93
54850;BME280;47660;51.334;12.396;2023-05-11T08:22:53;99956.28;;;26.40;50.53
54850;BME280;47660;51.334;12.396;2023-05-11T08:25:18;99960.28;;;26.31;51.28
54850;BME280;47660;51.334;12.396;2023-05-11T08:27:44;99950.06;;;28.34;46.58
54850;BME280;47660;51.334;12.396;2023-05-11T08:30:09;99960.44;;;26.56;50.48
54850;BME280;47660;51.334;12.396;2023-05-11T08:32:35;99962.78;;;26.39;50.82
54850;BME280;47660;51.334;12.396;2023-05-11T08:35:01;99955.97;;;28.05;46.95
54850;BME280;47660;51.334;12.396;2023-05-11T08:37:28;99956.97;;;27.01;49.07
54850;BME280;47660;51.334;12.396;2023-05-11T08:39:54;99960.84;;;27.25;47.91
54850;BME280;47660;51.334;12.396;2023-05-11T08:42:20;99959.38;;;28.26;47.62
54850;BME280;47660;51.334;12.396;2023-05-11T08:44:48;99956.28;;;29.64;44.23
54850;BME280;47660;51.334;12.396;2023-05-11T08:47:14;99957.38;;;29.14;44.86
54850;BME280;47660;51.334;12.396;2023-05-11T08:49:40;99964.19;;;27.98;46.58
54850;BME280;47660;51.334;12.396;2023-05-11T08:52:05;99964.19;;;28.30;45.99
54850;BME280;47660;51.334;12.396;2023-05-11T08:54:37;99957.56;;;28.38;45.82
54850;BME280;47660;51.334;12.396;2023-05-11T08:57:05;99972.56;;;28.03;46.45
54850;BME280;47660;51.334;12.396;2023-05-11T08:59:31;99958.63;;;28.81;44.93
54850;BME280;47660;51.334;12.396;2023-05-11T09:02:01;99972.16;;;26.63;51.00
54850;BME280;47660;51.334;12.396;2023-05-11T09:04:28;99973.06;;;26.23;51.17
54850;BME280;47660;51.334;12.396;2023-05-11T09:06:59;99958.66;;;28.74;46.99
54850;BME280;47660;51.334;12.396;2023-05-11T09:09:25;99949.16;;;29.14;44.70
54850;BME280;47660;51.334;12.396;2023-05-11T09:11:52;99950.69;;;29.59;44.16
54850;BME280;47660;51.334;12.396;2023-05-11T09:14:20;99959.63;;;29.36;43.77
54850;BME280;47660;51.334;12.396;2023-05-11T09:16:48;99960.94;;;29.15;43.69
54850;BME280;47660;51.334;12.396;2023-05-11T09:19:14;99957.84;;;28.05;45.84
54850;BME280;47660;51.334;12.396;2023-05-11T09:21:41;99956.94;;;28.17;44.45
54850;BME280;47660;51.334;12.396;2023-05-11T09:24:09;99951.97;;;29.26;43.54
54850;BME280;47660;51.334;12.396;2023-05-11T09:26:35;99953.00;;;29.74;41.57
54850;BME280;47660;51.334;12.396;2023-05-11T09:29:03;99956.88;;;28.43;44.80
54850;BME280;47660;51.334;12.396;2023-05-11T09:31:42;99953.94;;;28.88;44.06
54850;BME280;47660;51.334;12.396;2023-05-11T09:34:08;99959.69;;;27.08;46.14
54850;BME280;47660;51.334;12.396;2023-05-11T09:36:37;99955.38;;;27.96;45.56
54850;BME280;47660;51.334;12.396;2023-05-11T09:39:03;99968.13;;;26.86;47.90
54850;BME280;47660;51.334;12.396;2023-05-11T09:41:29;99960.47;;;27.93;46.38
54850;BME280;47660;51.334;12.396;2023-05-11T09:44:09;99975.06;;;26.75;49.92
54850;BME280;47660;51.334;12.396;2023-05-11T09:46:42;99968.22;;;27.25;48.25
54850;BME280;47660;51.334;12.396;2023-05-11T09:49:08;99968.25;;;27.64;47.08
54850;BME280;47660;51.334;12.396;2023-05-11T09:51:39;99965.59;;;29.14;44.43
54850;BME280;47660;51.334;12.396;2023-05-11T09:54:21;99965.22;;;28.29;45.67
54850;BME280;47660;51.334;12.396;2023-05-11T09:56:52;99959.16;;;28.90;43.70
54850;BME280;47660;51.334;12.396;2023-05-11T09:59:50;99961.69;;;29.71;42.52
54850;BME280;47660;51.334;12.396;2023-05-11T10:04:53;99957.06;;;29.23;43.99
54850;BME280;47660;51.334;12.396;2023-05-11T10:07:34;99959.16;;;28.90;44.67
54850;BME280;47660;51.334;12.396;2023-05-11T10:10:05;99947.81;;;30.08;43.40
54850;BME280;47660;51.334;12.396;2023-05-11T10:12:34;99947.50;;;31.63;39.92
54850;BME280;47660;51.334;12.396;2023-05-11T10:15:08;99936.44;;;29.81;42.51
54850;BME280;47660;51.334;12.396;2023-05-11T10:17:34;99944.00;;;27.99;44.89
54850;BME280;47660;51.334;12.396;2023-05-11T10:20:02;99942.50;;;29.71;43.06
54850;BME280;47660;51.334;12.396;2023-05-11T10:22:30;99934.63;;;28.83;44.82
54850;BME280;47660;51.334;12.396;2023-05-11T10:25:02;99938.53;;;29.55;43.97
54850;BME280;47660;51.334;12.396;2023-05-11T10:27:39;99932.16;;;29.85;42.21
54850;BME280;47660;51.334;12.396;2023-05-11T10:30:09;99936.34;;;28.59;44.52
54850;BME280;47660;51.334;12.396;2023-05-11T10:32:41;99941.16;;;29.31;43.83
54850;BME280;47660;51.334;12.396;2023-05-11T10:35:11;99930.31;;;27.49;45.54
54850;BME280;47660;51.334;12.396;2023-05-11T10:37:39;99925.06;;;30.67;40.38
54850;BME280;47660;51.334;12.396;2023-05-11T10:40:07;99920.53;;;30.49;39.05
54850;BME280;47660;51.334;12.396;2023-05-11T10:43:12;99914.56;;;31.17;38.24
54850;BME280;47660;51.334;12.396;2023-05-11T10:54:48;99924.38;;;27.58;43.56
54850;BME280;47660;51.334;12.396;2023-05-11T11:01:31;99917.28;;;28.71;42.71
54850;BME280;47660;51.334;12.396;2023-05-11T11:03:23;99910.13;;;28.33;43.80
54850;BME280;47660;51.334;12.396;2023-05-11T11:05:51;99915.28;;;28.22;43.68
54850;BME280;47660;51.334;12.396;2023-05-11T11:08:17;99923.44;;;27.71;45.06
54850;BME280;47660;51.334;12.396;2023-05-11T11:10:43;99923.28;;;28.98;43.50
54850;BME280;47660;51.334;12.396;2023-05-11T11:13:14;99911.84;;;30.29;40.68
54850;BME280;47660;51.334;12.396;2023-05-11T11:18:22;99905.41;;;30.59;40.91
54850;BME280;47660;51.334;12.396;2023-05-11T11:20:50;99907.25;;;29.63;41.44
54850;BME280;47660;51.334;12.396;2023-05-11T11:26:11;99906.91;;;29.83;40.05
54850;BME280;47660;51.334;12.396;2023-05-11T11:31:30;99916.66;;;28.31;40.59
54850;BME280;47660;51.334;12.396;2023-05-11T11:42:17;99914.34;;;30.30;38.58
54850;BME280;47660;51.334;12.396;2023-05-11T11:44:45;99909.09;;;31.05;38.49
54850;BME280;47660;51.334;12.396;2023-05-11T11:47:12;99910.78;;;29.52;40.46
54850;BME280;47660;51.334;12.396;2023-05-11T11:49:44;99912.81;;;29.56;40.62
54850;BME280;47660;51.334;12.396;2023-05-11T11:52:31;99914.75;;;28.69;42.08
54850;BME280;47660;51.334;12.396;2023-05-11T11:55:01;99918.97;;;29.40;41.22
54850;BME280;47660;51.334;12.396;2023-05-11T12:00:06;99907.06;;;30.12;39.11
54850;BME280;47660;51.334;12.396;2023-05-11T12:02:39;99910.66;;;31.01;37.90
54850;BME280;47660;51.334;12.396;2023-05-11T12:07:48;99907.22;;;31.52;36.69
54850;BME280;47660;51.334;12.396;2023-05-11T12:10:16;99904.38;;;29.70;38.45
54850;BME280;47660;51.334;12.396;2023-05-11T12:12:49;99911.72;;;30.23;37.90
54850;BME280;47660;51.334;12.396;2023-05-11T12:15:29;99902.75;;;32.53;34.34
54850;BME280;47660;51.334;12.396;2023-05-11T12:17:56;99906.28;;;31.75;35.12
54850;BME280;47660;51.334;12.396;2023-05-11T12:20:23;99907.25;;;30.82;34.83
54850;BME280;47660;51.334;12.396;2023-05-11T12:22:51;99912.13;;;30.92;34.14
54850;BME280;47660;51.334;12.396;2023-05-11T12:25:18;99906.22;;;29.45;37.34
54850;BME280;47660;51.334;12.396;2023-05-11T12:27:55;99906.59;;;31.79;35.16
54850;BME280;47660;51.334;12.396;2023-05-11T12:30:32;99912.84;;;31.91;34.64
54850;BME280;47660;51.334;12.396;2023-05-11T12:32:58;99915.34;;;29.70;37.46
54850;BME280;47660;51.334;12.396;2023-05-11T12:35:26;99909.88;;;28.71;38.75
54850;BME280;47660;51.334;12.396;2023-05-11T12:37:52;99916.19;;;29.82;38.08
54850;BME280;47660;51.334;12.396;2023-05-11T12:40:18;99915.03;;;30.49;36.46
54850;BME280;47660;51.334;12.396;2023-05-11T12:42:53;99914.38;;;28.66;38.84
54850;BME280;47660;51.334;12.396;2023-05-11T12:45:23;99915.06;;;28.42;39.66
54850;BME280;47660;51.334;12.396;2023-05-11T12:47:50;99897.25;;;31.80;34.86
54850;BME280;47660;51.334;12.396;2023-05-11T12:50:17;99895.53;;;33.14;32.97
54850;BME280;47660;51.334;12.396;2023-05-11T12:52:42;99897.69;;;30.85;34.58
54850;BME280;47660;51.334;12.396;2023-05-11T12:55:09;99905.97;;;31.02;33.96
54850;BME280;47660;51.334;12.396;2023-05-11T12:57:36;99897.41;;;30.21;35.06
54850;BME280;47660;51.334;12.396;2023-05-11T13:00:13;99889.78;;;32.71;31.84
54850;BME280;47660;51.334;12.396;2023-05-11T13:02:57;99879.09;;;31.62;32.41
54850;BME280;47660;51.334;12.396;2023-05-11T13:05:25;99892.59;;;30.76;33.99
54850;BME280;47660;51.334;12.396;2023-05-11T13:08:03;99896.34;;;31.91;32.11
54850;BME280;47660;51.334;12.396;2023-05-11T13:10:32;99902.72;;;29.69;33.93
54850;BME280;47660;51.334;12.396;2023-05-11T13:13:00;99902.22;;;29.29;34.00
54850;BME280;47660;51.334;12.396;2023-05-11T13:15:29;99885.97;;;34.78;27.87
54850;BME280;47660;51.334;12.396;2023-05-11T13:18:00;99884.13;;;32.38;30.34
54850;BME280;47660;51.334;12.396;2023-05-11T13:20:30;99881.34;;;31.48;31.32
54850;BME280;47660;51.334;12.396;2023-05-11T13:23:10;99882.72;;;32.36;31.27
54850;BME280;47660;51.334;12.396;2023-05-11T13:28:14;99883.72;;;31.27;32.64
54850;BME280;47660;51.334;12.396;2023-05-11T13:30:40;99877.72;;;31.76;31.84
54850;BME280;47660;51.334;12.396;2023-05-11T13:33:06;99881.31;;;29.77;33.36
54850;BME280;47660;51.334;12.396;2023-05-11T13:35:32;99886.28;;;29.26;33.19
54850;BME280;47660;51.334;12.396;2023-05-11T13:37:59;99881.69;;;29.08;34.09
54850;BME280;47660;51.334;12.396;2023-05-11T13:40:30;99876.53;;;32.45;30.61
54850;BME280;47660;51.334;12.396;2023-05-11T13:42:55;99874.13;;;32.77;29.60
54850;BME280;47660;51.334;12.396;2023-05-11T13:45:24;99882.81;;;31.38;31.40
54850;BME280;47660;51.334;12.396;2023-05-11T13:47:50;99894.19;;;30.60;32.74
54850;BME280;47660;51.334;12.396;2023-05-11T13:50:15;99894.56;;;28.89;34.95